sensor_id;sensor_type;location;lat;lon;timestamp;P1;durP1;ratioP1;P2;durP2;ratioP2
66581;SDS011;53438;48.898;2.308;2022-09-29T03:00:15;4.10;;;1.25;;
66581;SDS011;53438;48.898;2.308;2022-09-29T03:02:42;2.88;;;1.23;;
66581;SDS011;53438;48.898;2.308;2022-09-29T03:05:09;2.83;;;1.30;;
66581;SDS011;53438;48.898;2.308;2022-09-29T03:07:37;4.67;;;1.30;;
66581;SDS011;53438;48.898;2.308;2022-09-29T03:10:03;3.03;;;1.17;;
66581;SDS011;53438;48.898;2.308;2022-09-29T03:12:30;3.78;;;1.30;;
66581;SDS011;53438;48.898;2.308;2022-09-29T03:14:55;4.87;;;1.50;;
66581;SDS011;53438;48.898;2.308;2022-09-29T03:17:22;4.05;;;1.48;;
66581;SDS011;53438;48.898;2.308;2022-09-29T03:19:47;2.70;;;1.13;;
66581;SDS011;53438;48.898;2.308;2022-09-29T03:22:13;4.50;;;1.17;;
66581;SDS011;53438;48.898;2.308;2022-09-29T03:24:38;2.55;;;0.70;;
66581;SDS011;53438;48.898;2.308;2022-09-29T03:27:04;3.87;;;1.50;;
66581;SDS011;53438;48.898;2.308;2022-09-29T03:29:30;4.22;;;1.00;;
66581;SDS011;53438;48.898;2.308;2022-09-29T03:31:56;4.57;;;1.20;;
66581;SDS011;53438;48.898;2.308;2022-09-29T03:34:22;2.72;;;1.02;;
66581;SDS011;53438;48.898;2.308;2022-09-29T03:36:48;4.53;;;1.30;;
66581;SDS011;53438;48.898;2.308;2022-09-29T03:39:13;3.10;;;1.20;;
66581;SDS011;53438;48.898;2.308;2022-09-29T03:41:39;2.80;;;1.00;;
66581;SDS011;53438;48.898;2.308;2022-09-29T03:44:04;1.97;;;1.00;;
66581;SDS011;53438;48.898;2.308;2022-09-29T03:46:29;3.40;;;1.83;;
66581;SDS011;53438;48.898;2.308;2022-09-29T03:48:54;2.08;;;1.02;;
66581;SDS011;53438;48.898;2.308;2022-09-29T03:51:20;4.53;;;1.30;;
66581;SDS011;53438;48.898;2.308;2022-09-29T03:53:45;6.20;;;1.00;;
66581;SDS011;53438;48.898;2.308;2022-09-29T03:56:10;3.70;;;1.60;;
66581;SDS011;53438;48.898;2.308;2022-09-29T03:58:36;4.87;;;1.33;;
66581;SDS011;53438;48.898;2.308;2022-09-29T04:01:01;4.77;;;1.33;;
66581;SDS011;53438;48.898;2.308;2022-09-29T04:03:27;3.90;;;1.50;;
66581;SDS011;53438;48.898;2.308;2022-09-29T04:05:53;2.33;;;1.42;;
66581;SDS011;53438;48.898;2.308;2022-09-29T04:08:18;6.53;;;1.93;;
66581;SDS011;53438;48.898;2.308;2022-09-29T04:10:45;4.20;;;1.20;;
66581;SDS011;53438;48.898;2.308;2022-09-29T04:13:11;3.42;;;1.50;;
66581;SDS011;53438;48.898;2.308;2022-09-29T04:15:37;4.00;;;1.88;;
66581;SDS011;53438;48.898;2.308;2022-09-29T04:18:02;5.70;;;1.40;;
66581;SDS011;53438;48.898;2.308;2022-09-29T04:20:28;6.00;;;1.38;;
66581;SDS011;53438;48.898;2.308;2022-09-29T04:22:54;5.30;;;1.60;;
66581;SDS011;53438;48.898;2.308;2022-09-29T04:25:19;4.17;;;1.90;;
66581;SDS011;53438;48.898;2.308;2022-09-29T04:27:44;3.93;;;1.47;;
66581;SDS011;53438;48.898;2.308;2022-09-29T04:30:10;4.83;;;1.43;;
66581;SDS011;53438;48.898;2.308;2022-09-29T04:32:36;3.35;;;1.45;;
66581;SDS011;53438;48.898;2.308;2022-09-29T04:35:02;3.22;;;1.55;;
66581;SDS011;53438;48.898;2.308;2022-09-29T04:37:27;5.18;;;1.67;;
66581;SDS011;53438;48.898;2.308;2022-09-29T04:39:53;5.23;;;1.80;;
66581;SDS011;53438;48.898;2.308;2022-09-29T04:42:19;3.03;;;1.42;;
66581;SDS011;53438;48.898;2.308;2022-09-29T04:44:45;3.23;;;1.30;;
66581;SDS011;53438;48.898;2.308;2022-09-29T04:47:10;3.80;;;1.23;;
66581;SDS011;53438;48.898;2.308;2022-09-29T04:49:36;5.70;;;2.55;;
66581;SDS011;53438;48.898;2.308;2022-09-29T04:52:02;6.87;;;1.63;;
66581;SDS011;53438;48.898;2.308;2022-09-29T04:54:29;7.35;;;1.77;;
66581;SDS011;53438;48.898;2.308;2022-09-29T04:56:58;4.33;;;1.50;;
66581;SDS011;53438;48.898;2.308;2022-09-29T04:59:23;9.80;;;1.50;;
66581;SDS011;53438;48.898;2.308;2022-09-29T05:01:49;6.00;;;1.50;;
66581;SDS011;53438;48.898;2.308;2022-09-29T05:04:14;7.33;;;1.60;;
66581;SDS011;53438;48.898;2.308;2022-09-29T05:06:40;9.05;;;1.83;;
66581;SDS011;53438;48.898;2.308;2022-09-29T05:09:05;7.25;;;2.10;;
66581;SDS011;53438;48.898;2.308;2022-09-29T05:11:31;4.53;;;1.50;;
66581;SDS011;53438;48.898;2.308;2022-09-29T05:13:56;6.07;;;1.85;;
66581;SDS011;53438;48.898;2.308;2022-09-29T05:16:22;3.13;;;1.50;;
66581;SDS011;53438;48.898;2.308;2022-09-29T05:18:48;4.10;;;1.65;;
66581;SDS011;53438;48.898;2.308;2022-09-29T05:21:14;3.87;;;1.90;;
66581;SDS011;53438;48.898;2.308;2022-09-29T05:23:39;4.93;;;1.80;;
66581;SDS011;53438;48.898;2.308;2022-09-29T05:26:06;5.10;;;2.13;;
66581;SDS011;53438;48.898;2.308;2022-09-29T05:28:34;6.55;;;1.88;;
66581;SDS011;53438;48.898;2.308;2022-09-29T05:31:01;4.00;;;1.77;;
66581;SDS011;53438;48.898;2.308;2022-09-29T05:33:27;2.88;;;1.63;;
66581;SDS011;53438;48.898;2.308;2022-09-29T05:35:53;3.93;;;1.67;;
66581;SDS011;53438;48.898;2.308;2022-09-29T05:38:19;4.05;;;2.05;;
66581;SDS011;53438;48.898;2.308;2022-09-29T05:40:44;4.70;;;1.90;;
66581;SDS011;53438;48.898;2.308;2022-09-29T05:43:10;6.50;;;2.27;;
66581;SDS011;53438;48.898;2.308;2022-09-29T05:45:35;4.95;;;2.10;;
66581;SDS011;53438;48.898;2.308;2022-09-29T05:48:01;6.63;;;2.17;;
66581;SDS011;53438;48.898;2.308;2022-09-29T05:50:26;3.80;;;1.90;;
66581;SDS011;53438;48.898;2.308;2022-09-29T05:52:52;6.03;;;2.30;;
66581;SDS011;53438;48.898;2.308;2022-09-29T05:55:18;4.80;;;2.03;;
66581;SDS011;53438;48.898;2.308;2022-09-29T05:57:47;5.07;;;1.70;;
66581;SDS011;53438;48.898;2.308;2022-09-29T06:00:13;8.80;;;2.08;;
66581;SDS011;53438;48.898;2.308;2022-09-29T06:02:39;5.70;;;2.00;;
66581;SDS011;53438;48.898;2.308;2022-09-29T06:05:04;5.33;;;2.07;;
66581;SDS011;53438;48.898;2.308;2022-09-29T06:07:29;5.82;;;2.00;;
66581;SDS011;53438;48.898;2.308;2022-09-29T06:09:55;5.77;;;2.73;;
66581;SDS011;53438;48.898;2.308;2022-09-29T06:12:20;5.70;;;2.10;;
66581;SDS011;53438;48.898;2.308;2022-09-29T06:14:46;5.07;;;1.73;;
66581;SDS011;53438;48.898;2.308;2022-09-29T06:17:11;7.07;;;1.93;;
66581;SDS011;53438;48.898;2.308;2022-09-29T06:19:37;5.80;;;3.15;;
66581;SDS011;53438;48.898;2.308;2022-09-29T06:22:02;4.23;;;2.30;;
66581;SDS011;53438;48.898;2.308;2022-09-29T06:24:27;6.47;;;2.83;;
66581;SDS011;53438;48.898;2.308;2022-09-29T06:26:53;4.60;;;2.37;;
66581;SDS011;53438;48.898;2.308;2022-09-29T06:29:18;4.53;;;2.30;;
66581;SDS011;53438;48.898;2.308;2022-09-29T06:31:43;6.63;;;2.27;;
66581;SDS011;53438;48.898;2.308;2022-09-29T06:34:09;5.97;;;2.43;;
66581;SDS011;53438;48.898;2.308;2022-09-29T06:36:39;28.10;;;5.18;;
66581;SDS011;53438;48.898;2.308;2022-09-29T06:39:24;8.20;;;2.22;;
66581;SDS011;53438;48.898;2.308;2022-09-29T06:41:50;11.52;;;3.65;;
66581;SDS011;53438;48.898;2.308;2022-09-29T06:44:18;8.10;;;3.53;;
66581;SDS011;53438;48.898;2.308;2022-09-29T06:46:44;6.00;;;2.40;;
66581;SDS011;53438;48.898;2.308;2022-09-29T06:49:10;10.70;;;3.03;;
66581;SDS011;53438;48.898;2.308;2022-09-29T06:51:37;10.17;;;2.70;;
66581;SDS011;53438;48.898;2.308;2022-09-29T06:54:02;7.45;;;2.90;;
66581;SDS011;53438;48.898;2.308;2022-09-29T06:56:28;9.23;;;3.00;;
66581;SDS011;53438;48.898;2.308;2022-09-29T06:58:54;7.17;;;3.07;;
66581;SDS011;53438;48.898;2.308;2022-09-29T07:01:19;8.13;;;3.28;;
66581;SDS011;53438;48.898;2.308;2022-09-29T07:03:45;5.63;;;2.47;;
66581;SDS011;53438;48.898;2.308;2022-09-29T07:06:10;6.57;;;2.67;;
66581;SDS011;53438;48.898;2.308;2022-09-29T07:08:36;9.25;;;2.97;;
66581;SDS011;53438;48.898;2.308;2022-09-29T07:11:04;15.33;;;8.23;;
66581;SDS011;53438;48.898;2.308;2022-09-29T07:13:31;9.93;;;4.03;;
66581;SDS011;53438;48.898;2.308;2022-09-29T07:16:01;7.37;;;4.27;;
66581;SDS011;53438;48.898;2.308;2022-09-29T07:18:38;9.23;;;3.88;;
66581;SDS011;53438;48.898;2.308;2022-09-29T07:21:05;7.80;;;3.00;;
66581;SDS011;53438;48.898;2.308;2022-09-29T07:23:35;7.60;;;2.92;;
66581;SDS011;53438;48.898;2.308;2022-09-29T07:26:01;8.50;;;3.10;;
66581;SDS011;53438;48.898;2.308;2022-09-29T07:28:27;10.20;;;3.10;;
66581;SDS011;53438;48.898;2.308;2022-09-29T07:31:00;8.80;;;3.22;;
66581;SDS011;53438;48.898;2.308;2022-09-29T07:33:26;8.70;;;3.20;;
66581;SDS011;53438;48.898;2.308;2022-09-29T07:35:52;8.53;;;3.17;;
66581;SDS011;53438;48.898;2.308;2022-09-29T07:38:18;8.48;;;3.08;;
66581;SDS011;53438;48.898;2.308;2022-09-29T07:40:44;8.20;;;3.00;;
66581;SDS011;53438;48.898;2.308;2022-09-29T07:43:09;6.67;;;3.00;;
66581;SDS011;53438;48.898;2.308;2022-09-29T07:45:34;10.33;;;4.03;;
66581;SDS011;53438;48.898;2.308;2022-09-29T07:48:00;6.57;;;3.10;;
66581;SDS011;53438;48.898;2.308;2022-09-29T07:50:25;6.63;;;3.25;;
66581;SDS011;53438;48.898;2.308;2022-09-29T07:52:50;6.47;;;2.90;;
66581;SDS011;53438;48.898;2.308;2022-09-29T07:55:16;5.57;;;3.00;;
66581;SDS011;53438;48.898;2.308;2022-09-29T07:57:42;8.00;;;3.17;;
66581;SDS011;53438;48.898;2.308;2022-09-29T08:00:07;5.45;;;2.60;;
66581;SDS011;53438;48.898;2.308;2022-09-29T08:02:34;7.85;;;3.63;;
66581;SDS011;53438;48.898;2.308;2022-09-29T08:04:59;10.03;;;3.20;;
66581;SDS011;53438;48.898;2.308;2022-09-29T08:07:26;5.47;;;2.80;;
66581;SDS011;53438;48.898;2.308;2022-09-29T08:09:51;9.20;;;3.67;;
66581;SDS011;53438;48.898;2.308;2022-09-29T08:12:17;7.47;;;2.90;;
66581;SDS011;53438;48.898;2.308;2022-09-29T08:14:43;5.33;;;2.90;;
66581;SDS011;53438;48.898;2.308;2022-09-29T08:17:08;8.30;;;3.30;;
66581;SDS011;53438;48.898;2.308;2022-09-29T08:19:33;6.20;;;3.57;;
66581;SDS011;53438;48.898;2.308;2022-09-29T08:21:59;7.27;;;3.93;;
66581;SDS011;53438;48.898;2.308;2022-09-29T08:24:26;7.93;;;3.97;;
66581;SDS011;53438;48.898;2.308;2022-09-29T08:26:52;9.90;;;3.40;;
66581;SDS011;53438;48.898;2.308;2022-09-29T08:29:17;7.63;;;3.33;;
66581;SDS011;53438;48.898;2.308;2022-09-29T08:31:43;6.17;;;4.07;;
66581;SDS011;53438;48.898;2.308;2022-09-29T08:34:08;9.93;;;4.18;;
66581;SDS011;53438;48.898;2.308;2022-09-29T08:36:34;7.40;;;3.43;;
66581;SDS011;53438;48.898;2.308;2022-09-29T08:39:00;9.57;;;3.92;;
66581;SDS011;53438;48.898;2.308;2022-09-29T08:44:31;7.15;;;3.80;;
66581;SDS011;53438;48.898;2.308;2022-09-29T08:47:20;12.38;;;4.68;;
66581;SDS011;53438;48.898;2.308;2022-09-29T08:49:49;6.45;;;3.50;;
66581;SDS011;53438;48.898;2.308;2022-09-29T08:52:29;6.00;;;3.35;;
66581;SDS011;53438;48.898;2.308;2022-09-29T08:58:01;6.65;;;3.65;;
66581;SDS011;53438;48.898;2.308;2022-09-29T09:00:33;9.27;;;3.90;;
66581;SDS011;53438;48.898;2.308;2022-09-29T09:03:11;8.50;;;4.03;;
66581;SDS011;53438;48.898;2.308;2022-09-29T09:05:50;8.35;;;4.00;;
66581;SDS011;53438;48.898;2.308;2022-09-29T09:14:17;10.37;;;3.80;;
66581;SDS011;53438;48.898;2.308;2022-09-29T09:16:55;8.68;;;3.97;;
66581;SDS011;53438;48.898;2.308;2022-09-29T09:19:43;8.55;;;4.07;;
66581;SDS011;53438;48.898;2.308;2022-09-29T09:22:22;9.45;;;4.82;;
66581;SDS011;53438;48.898;2.308;2022-09-29T09:25:10;10.10;;;4.32;;
66581;SDS011;53438;48.898;2.308;2022-09-29T09:27:44;8.60;;;3.50;;
66581;SDS011;53438;48.898;2.308;2022-09-29T09:30:15;7.10;;;3.70;;
66581;SDS011;53438;48.898;2.308;2022-09-29T09:32:51;7.47;;;3.80;;
66581;SDS011;53438;48.898;2.308;2022-09-29T09:38:07;9.70;;;3.78;;
66581;SDS011;53438;48.898;2.308;2022-09-29T09:40:44;8.97;;;3.67;;
66581;SDS011;53438;48.898;2.308;2022-09-29T09:43:17;6.07;;;3.13;;
66581;SDS011;53438;48.898;2.308;2022-09-29T09:48:48;7.47;;;2.45;;
66581;SDS011;53438;48.898;2.308;2022-09-29T09:51:28;3.45;;;1.80;;
66581;SDS011;53438;48.898;2.308;2022-09-29T09:53:56;3.93;;;2.20;;
66581;SDS011;53438;48.898;2.308;2022-09-29T09:59:28;5.72;;;2.83;;
66581;SDS011;53438;48.898;2.308;2022-09-29T10:02:02;5.68;;;3.00;;
66581;SDS011;53438;48.898;2.308;2022-09-29T10:04:28;5.80;;;2.73;;
66581;SDS011;53438;48.898;2.308;2022-09-29T10:06:54;5.22;;;2.88;;
66581;SDS011;53438;48.898;2.308;2022-09-29T10:09:20;5.97;;;3.33;;
66581;SDS011;53438;48.898;2.308;2022-09-29T10:11:45;5.70;;;3.17;;
66581;SDS011;53438;48.898;2.308;2022-09-29T10:14:13;5.47;;;3.10;;
66581;SDS011;53438;48.898;2.308;2022-09-29T10:16:50;12.53;;;5.37;;
66581;SDS011;53438;48.898;2.308;2022-09-29T10:19:21;10.88;;;5.07;;
66581;SDS011;53438;48.898;2.308;2022-09-29T10:21:48;11.18;;;5.30;;
66581;SDS011;53438;48.898;2.308;2022-09-29T10:24:26;7.88;;;3.42;;
66581;SDS011;53438;48.898;2.308;2022-09-29T10:26:55;6.35;;;3.10;;
66581;SDS011;53438;48.898;2.308;2022-09-29T10:29:44;6.37;;;3.90;;
66581;SDS011;53438;48.898;2.308;2022-09-29T10:34:45;6.82;;;2.95;;
66581;SDS011;53438;48.898;2.308;2022-09-29T10:37:22;6.03;;;3.55;;
66581;SDS011;53438;48.898;2.308;2022-09-29T10:40:23;6.05;;;2.67;;
66581;SDS011;53438;48.898;2.308;2022-09-29T10:42:48;7.20;;;3.90;;
66581;SDS011;53438;48.898;2.308;2022-09-29T10:50:27;4.88;;;2.80;;
66581;SDS011;53438;48.898;2.308;2022-09-29T10:52:55;11.80;;;5.88;;
66581;SDS011;53438;48.898;2.308;2022-09-29T10:55:22;11.77;;;6.43;;
66581;SDS011;53438;48.898;2.308;2022-09-29T10:57:50;11.07;;;6.95;;
66581;SDS011;53438;48.898;2.308;2022-09-29T11:00:28;11.20;;;6.03;;
66581;SDS011;53438;48.898;2.308;2022-09-29T11:03:03;10.02;;;6.00;;
66581;SDS011;53438;48.898;2.308;2022-09-29T11:05:30;15.20;;;7.00;;
66581;SDS011;53438;48.898;2.308;2022-09-29T11:07:56;10.60;;;6.87;;
66581;SDS011;53438;48.898;2.308;2022-09-29T11:15:43;11.52;;;4.97;;
66581;SDS011;53438;48.898;2.308;2022-09-29T11:18:16;6.97;;;3.53;;
66581;SDS011;53438;48.898;2.308;2022-09-29T11:20:43;6.00;;;3.72;;
66581;SDS011;53438;48.898;2.308;2022-09-29T11:23:21;6.45;;;2.88;;
66581;SDS011;53438;48.898;2.308;2022-09-29T11:28:40;4.97;;;2.47;;
66581;SDS011;53438;48.898;2.308;2022-09-29T11:31:38;4.00;;;2.27;;
66581;SDS011;53438;48.898;2.308;2022-09-29T11:37:09;9.32;;;2.95;;
66581;SDS011;53438;48.898;2.308;2022-09-29T11:39:43;5.88;;;2.50;;
66581;SDS011;53438;48.898;2.308;2022-09-29T11:44:57;8.80;;;3.17;;
66581;SDS011;53438;48.898;2.308;2022-09-29T11:55:48;6.05;;;3.00;;
66581;SDS011;53438;48.898;2.308;2022-09-29T11:58:29;4.13;;;2.13;;
66581;SDS011;53438;48.898;2.308;2022-09-29T12:06:54;4.65;;;2.08;;
66581;SDS011;53438;48.898;2.308;2022-09-29T12:12:28;5.57;;;2.97;;
66581;SDS011;53438;48.898;2.308;2022-09-29T12:17:47;6.25;;;2.05;;
66581;SDS011;53438;48.898;2.308;2022-09-29T12:20:27;6.68;;;3.08;;
66581;SDS011;53438;48.898;2.308;2022-09-29T12:22:56;4.65;;;2.30;;
66581;SDS011;53438;48.898;2.308;2022-09-29T12:25:26;5.90;;;1.80;;
66581;SDS011;53438;48.898;2.308;2022-09-29T12:28:01;3.10;;;1.60;;
66581;SDS011;53438;48.898;2.308;2022-09-29T12:30:45;4.25;;;2.22;;
66581;SDS011;53438;48.898;2.308;2022-09-29T12:33:19;5.45;;;2.28;;
66581;SDS011;53438;48.898;2.308;2022-09-29T12:35:54;5.80;;;2.20;;
66581;SDS011;53438;48.898;2.308;2022-09-29T12:38:55;8.30;;;2.53;;
66581;SDS011;53438;48.898;2.308;2022-09-29T12:41:28;5.30;;;2.40;;
66581;SDS011;53438;48.898;2.308;2022-09-29T12:46:31;8.70;;;3.05;;
66581;SDS011;53438;48.898;2.308;2022-09-29T12:49:03;17.67;;;3.92;;
66581;SDS011;53438;48.898;2.308;2022-09-29T12:51:43;8.03;;;3.40;;
66581;SDS011;53438;48.898;2.308;2022-09-29T12:56:48;9.13;;;4.63;;
66581;SDS011;53438;48.898;2.308;2022-09-29T13:02:00;8.80;;;3.28;;
66581;SDS011;53438;48.898;2.308;2022-09-29T13:21:39;15.10;;;7.60;;
66581;SDS011;53438;48.898;2.308;2022-09-29T13:27:34;7.63;;;4.47;;
66581;SDS011;53438;48.898;2.308;2022-09-29T13:30:13;8.00;;;3.95;;
66581;SDS011;53438;48.898;2.308;2022-09-29T13:32:44;7.43;;;3.50;;
66581;SDS011;53438;48.898;2.308;2022-09-29T13:35:22;15.13;;;4.45;;
66581;SDS011;53438;48.898;2.308;2022-09-29T13:37:50;14.27;;;5.15;;
66581;SDS011;53438;48.898;2.308;2022-09-29T13:40:28;8.80;;;4.15;;
66581;SDS011;53438;48.898;2.308;2022-09-29T13:43:04;6.40;;;3.40;;
66581;SDS011;53438;48.898;2.308;2022-09-29T13:48:33;10.20;;;4.53;;
66581;SDS011;53438;48.898;2.308;2022-09-29T13:55:51;7.57;;;4.40;;
66581;SDS011;53438;48.898;2.308;2022-09-29T14:00:53;7.15;;;3.83;;
66581;SDS011;53438;48.898;2.308;2022-09-29T14:06:23;8.20;;;3.88;;
66581;SDS011;53438;48.898;2.308;2022-09-29T14:08:49;24.65;;;5.38;;
66581;SDS011;53438;48.898;2.308;2022-09-29T14:11:35;17.45;;;4.68;;
66581;SDS011;53438;48.898;2.308;2022-09-29T14:16:52;8.80;;;3.93;;
66581;SDS011;53438;48.898;2.308;2022-09-29T14:19:50;8.98;;;3.72;;
66581;SDS011;53438;48.898;2.308;2022-09-29T14:24:54;8.73;;;4.05;;
66581;SDS011;53438;48.898;2.308;2022-09-29T14:32:57;6.57;;;3.13;;
66581;SDS011;53438;48.898;2.308;2022-09-29T14:35:33;4.75;;;3.20;;
66581;SDS011;53438;48.898;2.308;2022-09-29T14:40:38;7.65;;;4.05;;
66581;SDS011;53438;48.898;2.308;2022-09-29T14:48:41;5.80;;;2.85;;
66581;SDS011;53438;48.898;2.308;2022-09-29T14:51:50;7.30;;;3.40;;
66581;SDS011;53438;48.898;2.308;2022-09-29T14:54:35;8.00;;;2.80;;
66581;SDS011;53438;48.898;2.308;2022-09-29T15:02:41;5.10;;;1.52;;
66581;SDS011;53438;48.898;2.308;2022-09-29T15:05:13;4.28;;;2.45;;
66581;SDS011;53438;48.898;2.308;2022-09-29T15:07:48;3.63;;;2.40;;
66581;SDS011;53438;48.898;2.308;2022-09-29T15:10:22;7.30;;;2.30;;
66581;SDS011;53438;48.898;2.308;2022-09-29T15:15:39;3.38;;;1.77;;
66581;SDS011;53438;48.898;2.308;2022-09-29T15:18:11;4.95;;;1.85;;
66581;SDS011;53438;48.898;2.308;2022-09-29T15:24:00;2.15;;;1.48;;
66581;SDS011;53438;48.898;2.308;2022-09-29T15:26:29;5.88;;;1.80;;
66581;SDS011;53438;48.898;2.308;2022-09-29T15:28:56;2.85;;;1.30;;
66581;SDS011;53438;48.898;2.308;2022-09-29T15:31:26;3.80;;;1.37;;
66581;SDS011;53438;48.898;2.308;2022-09-29T15:33:54;7.65;;;4.47;;
66581;SDS011;53438;48.898;2.308;2022-09-29T15:36:22;4.00;;;1.50;;
66581;SDS011;53438;48.898;2.308;2022-09-29T15:38:51;3.25;;;1.05;;
66581;SDS011;53438;48.898;2.308;2022-09-29T15:41:20;3.33;;;0.90;;
66581;SDS011;53438;48.898;2.308;2022-09-29T15:43:51;3.43;;;1.50;;
66581;SDS011;53438;48.898;2.308;2022-09-29T15:51:34;3.55;;;1.67;;
66581;SDS011;53438;48.898;2.308;2022-09-29T15:54:01;2.78;;;1.40;;
66581;SDS011;53438;48.898;2.308;2022-09-29T15:56:33;4.93;;;1.50;;
66581;SDS011;53438;48.898;2.308;2022-09-29T15:59:18;5.03;;;1.20;;
66581;SDS011;53438;48.898;2.308;2022-09-29T16:01:44;3.75;;;1.42;;
66581;SDS011;53438;48.898;2.308;2022-09-29T16:04:09;6.27;;;1.23;;
66581;SDS011;53438;48.898;2.308;2022-09-29T16:06:35;4.30;;;1.00;;
66581;SDS011;53438;48.898;2.308;2022-09-29T16:09:03;4.88;;;1.30;;
66581;SDS011;53438;48.898;2.308;2022-09-29T16:11:36;5.22;;;1.50;;
66581;SDS011;53438;48.898;2.308;2022-09-29T16:14:07;3.47;;;1.02;;
66581;SDS011;53438;48.898;2.308;2022-09-29T16:16:39;3.47;;;1.35;;
66581;SDS011;53438;48.898;2.308;2022-09-29T16:19:19;8.63;;;1.43;;
66581;SDS011;53438;48.898;2.308;2022-09-29T16:21:51;3.10;;;1.25;;
66581;SDS011;53438;48.898;2.308;2022-09-29T16:24:19;2.05;;;0.80;;
66581;SDS011;53438;48.898;2.308;2022-09-29T16:26:49;2.53;;;1.00;;
66581;SDS011;53438;48.898;2.308;2022-09-29T16:31:42;2.17;;;1.00;;
66581;SDS011;53438;48.898;2.308;2022-09-29T16:36:47;3.33;;;0.82;;
66581;SDS011;53438;48.898;2.308;2022-09-29T16:39:14;3.40;;;1.00;;
66581;SDS011;53438;48.898;2.308;2022-09-29T16:41:41;2.58;;;0.80;;
66581;SDS011;53438;48.898;2.308;2022-09-29T16:46:33;3.20;;;1.10;;
66581;SDS011;53438;48.898;2.308;2022-09-29T16:49:11;3.50;;;1.02;;
66581;SDS011;53438;48.898;2.308;2022-09-29T16:51:49;4.03;;;1.08;;
66581;SDS011;53438;48.898;2.308;2022-09-29T16:54:18;5.63;;;0.85;;
66581;SDS011;53438;48.898;2.308;2022-09-29T16:56:47;3.17;;;0.90;;
66581;SDS011;53438;48.898;2.308;2022-09-29T16:59:32;2.53;;;0.97;;
66581;SDS011;53438;48.898;2.308;2022-09-29T17:01:58;4.70;;;0.95;;
66581;SDS011;53438;48.898;2.308;2022-09-29T17:04:23;4.07;;;0.80;;
66581;SDS011;53438;48.898;2.308;2022-09-29T17:06:49;3.07;;;1.10;;
66581;SDS011;53438;48.898;2.308;2022-09-29T17:09:18;3.47;;;1.10;;
66581;SDS011;53438;48.898;2.308;2022-09-29T17:11:48;4.95;;;2.65;;
66581;SDS011;53438;48.898;2.308;2022-09-29T17:14:13;3.00;;;1.30;;
66581;SDS011;53438;48.898;2.308;2022-09-29T17:16:39;3.38;;;1.00;;
66581;SDS011;53438;48.898;2.308;2022-09-29T17:19:07;3.22;;;1.30;;
66581;SDS011;53438;48.898;2.308;2022-09-29T17:21:34;4.35;;;1.40;;
66581;SDS011;53438;48.898;2.308;2022-09-29T17:23:59;2.63;;;1.20;;
66581;SDS011;53438;48.898;2.308;2022-09-29T17:26:43;3.17;;;1.70;;
66581;SDS011;53438;48.898;2.308;2022-09-29T17:29:28;4.07;;;1.50;;
66581;SDS011;53438;48.898;2.308;2022-09-29T17:31:54;5.20;;;1.90;;
66581;SDS011;53438;48.898;2.308;2022-09-29T17:34:19;3.97;;;1.87;;
66581;SDS011;53438;48.898;2.308;2022-09-29T17:36:53;3.08;;;1.58;;
66581;SDS011;53438;48.898;2.308;2022-09-29T17:39:20;4.10;;;1.80;;
66581;SDS011;53438;48.898;2.308;2022-09-29T17:41:46;6.07;;;1.73;;
66581;SDS011;53438;48.898;2.308;2022-09-29T17:44:13;8.07;;;2.22;;
66581;SDS011;53438;48.898;2.308;2022-09-29T17:46:38;5.87;;;1.97;;
66581;SDS011;53438;48.898;2.308;2022-09-29T17:49:09;3.70;;;1.85;;
66581;SDS011;53438;48.898;2.308;2022-09-29T17:51:35;7.45;;;2.00;;
66581;SDS011;53438;48.898;2.308;2022-09-29T17:54:00;3.20;;;1.60;;
66581;SDS011;53438;48.898;2.308;2022-09-29T17:56:26;5.47;;;2.00;;
66581;SDS011;53438;48.898;2.308;2022-09-29T17:58:52;9.88;;;3.90;;
66581;SDS011;53438;48.898;2.308;2022-09-29T18:01:19;23.83;;;8.02;;
66581;SDS011;53438;48.898;2.308;2022-09-29T18:03:46;5.78;;;2.40;;
66581;SDS011;53438;48.898;2.308;2022-09-29T18:06:15;8.03;;;3.30;;
66581;SDS011;53438;48.898;2.308;2022-09-29T18:08:49;4.45;;;2.35;;
66581;SDS011;53438;48.898;2.308;2022-09-29T18:11:19;4.90;;;2.70;;
66581;SDS011;53438;48.898;2.308;2022-09-29T18:13:46;6.28;;;2.80;;
66581;SDS011;53438;48.898;2.308;2022-09-29T18:16:12;5.87;;;3.20;;
66581;SDS011;53438;48.898;2.308;2022-09-29T18:18:43;7.70;;;2.88;;
66581;SDS011;53438;48.898;2.308;2022-09-29T18:21:09;6.47;;;3.10;;
66581;SDS011;53438;48.898;2.308;2022-09-29T18:23:35;5.50;;;2.67;;
66581;SDS011;53438;48.898;2.308;2022-09-29T18:26:01;5.32;;;3.40;;
66581;SDS011;53438;48.898;2.308;2022-09-29T18:28:28;6.20;;;3.70;;
66581;SDS011;53438;48.898;2.308;2022-09-29T18:31:04;8.32;;;3.88;;
66581;SDS011;53438;48.898;2.308;2022-09-29T18:33:35;8.07;;;3.83;;
66581;SDS011;53438;48.898;2.308;2022-09-29T18:36:00;6.30;;;3.10;;
66581;SDS011;53438;48.898;2.308;2022-09-29T18:38:26;6.47;;;3.72;;
66581;SDS011;53438;48.898;2.308;2022-09-29T18:40:52;8.83;;;2.90;;
66581;SDS011;53438;48.898;2.308;2022-09-29T18:43:21;6.25;;;3.30;;
66581;SDS011;53438;48.898;2.308;2022-09-29T18:45:49;5.00;;;2.97;;
66581;SDS011;53438;48.898;2.308;2022-09-29T18:48:15;7.00;;;3.87;;
66581;SDS011;53438;48.898;2.308;2022-09-29T18:50:41;5.82;;;3.17;;
66581;SDS011;53438;48.898;2.308;2022-09-29T18:53:09;13.73;;;3.80;;
66581;SDS011;53438;48.898;2.308;2022-09-29T18:55:35;8.80;;;3.55;;
66581;SDS011;53438;48.898;2.308;2022-09-29T18:58:01;6.70;;;3.60;;
66581;SDS011;53438;48.898;2.308;2022-09-29T19:00:31;7.07;;;3.27;;
66581;SDS011;53438;48.898;2.308;2022-09-29T19:03:00;5.82;;;3.22;;
66581;SDS011;53438;48.898;2.308;2022-09-29T19:05:29;5.07;;;2.97;;
66581;SDS011;53438;48.898;2.308;2022-09-29T19:07:57;6.15;;;3.17;;
66581;SDS011;53438;48.898;2.308;2022-09-29T19:10:27;7.30;;;3.60;;
66581;SDS011;53438;48.898;2.308;2022-09-29T19:13:01;6.30;;;3.35;;
66581;SDS011;53438;48.898;2.308;2022-09-29T19:15:32;7.68;;;3.60;;
66581;SDS011;53438;48.898;2.308;2022-09-29T19:17:59;6.72;;;3.58;;
66581;SDS011;53438;48.898;2.308;2022-09-29T19:20:25;8.43;;;4.47;;
66581;SDS011;53438;48.898;2.308;2022-09-29T19:22:52;7.28;;;3.80;;
66581;SDS011;53438;48.898;2.308;2022-09-29T19:25:20;7.43;;;4.30;;
66581;SDS011;53438;48.898;2.308;2022-09-29T19:27:48;7.45;;;3.85;;
66581;SDS011;53438;48.898;2.308;2022-09-29T19:30:16;8.00;;;4.10;;
66581;SDS011;53438;48.898;2.308;2022-09-29T19:32:43;9.52;;;4.32;;
66581;SDS011;53438;48.898;2.308;2022-09-29T19:35:09;8.77;;;4.90;;
66581;SDS011;53438;48.898;2.308;2022-09-29T19:37:37;8.40;;;4.70;;
66581;SDS011;53438;48.898;2.308;2022-09-29T19:40:04;9.57;;;4.60;;
66581;SDS011;53438;48.898;2.308;2022-09-29T19:42:31;7.38;;;4.47;;
66581;SDS011;53438;48.898;2.308;2022-09-29T19:44:57;9.10;;;4.80;;
66581;SDS011;53438;48.898;2.308;2022-09-29T19:47:23;11.88;;;5.68;;
66581;SDS011;53438;48.898;2.308;2022-09-29T19:49:48;11.93;;;5.50;;
66581;SDS011;53438;48.898;2.308;2022-09-29T19:52:14;8.40;;;4.73;;
66581;SDS011;53438;48.898;2.308;2022-09-29T19:54:39;10.37;;;4.27;;
66581;SDS011;53438;48.898;2.308;2022-09-29T19:57:06;9.70;;;5.22;;
66581;SDS011;53438;48.898;2.308;2022-09-29T19:59:36;10.67;;;6.07;;
66581;SDS011;53438;48.898;2.308;2022-09-29T20:02:05;12.10;;;6.70;;
66581;SDS011;53438;48.898;2.308;2022-09-29T20:04:38;14.15;;;5.60;;
66581;SDS011;53438;48.898;2.308;2022-09-29T20:07:03;12.15;;;4.85;;
66581;SDS011;53438;48.898;2.308;2022-09-29T20:09:30;10.95;;;5.18;;
66581;SDS011;53438;48.898;2.308;2022-09-29T20:11:57;9.93;;;5.30;;
66581;SDS011;53438;48.898;2.308;2022-09-29T20:14:23;8.65;;;5.35;;
66581;SDS011;53438;48.898;2.308;2022-09-29T20:16:51;9.60;;;4.38;;
66581;SDS011;53438;48.898;2.308;2022-09-29T20:19:19;14.32;;;6.55;;
66581;SDS011;53438;48.898;2.308;2022-09-29T20:21:47;15.27;;;7.03;;
66581;SDS011;53438;48.898;2.308;2022-09-29T20:24:15;11.70;;;5.55;;